createdAt,value
2023-04-20T00:00:34.919Z,13952.7695
2023-04-20T00:01:36.338Z,13954.2305
2023-04-20T00:02:37.847Z,13948.2305
2023-04-20T00:03:39.325Z,13948.8457
2023-04-20T00:04:40.679Z,13956.7695
2023-04-20T00:05:42.018Z,13957.8457
2023-04-20T00:06:43.465Z,13951.8457
2023-04-20T00:07:44.875Z,13954.4619
2023-04-20T00:08:46.234Z,13953.9229
2023-04-20T00:09:47.693Z,13953.0771
2023-04-20T00:10:49.143Z,13953.7695
2023-04-20T00:11:50.581Z,13951.4619
2023-04-20T00:12:52.002Z,13954.4619
2023-04-20T00:13:53.460Z,13952.8457
2023-04-20T00:14:54.807Z,13951.6924
2023-04-20T00:15:56.255Z,13952.1543
2023-04-20T00:16:57.787Z,13954.3848
2023-04-20T00:17:59.213Z,13955.6152
2023-04-20T00:19:00.566Z,13956.3848
2023-04-20T00:20:02.008Z,13959.4619
2023-04-20T00:21:03.406Z,13955.1543
2023-04-20T00:22:04.839Z,13949.8457
2023-04-20T00:23:06.265Z,13953.2305
2023-04-20T00:24:07.741Z,13953.3848
2023-04-20T00:25:09.163Z,13964.5381
2023-04-20T00:26:10.538Z,13962.0000
2023-04-20T00:27:12.043Z,13961.3076
2023-04-20T00:28:13.451Z,13954.8457
2023-04-20T00:29:15.023Z,13953.2305
2023-04-20T00:30:16.403Z,13951.0771
2023-04-20T00:31:17.794Z,13953.0771
2023-04-20T00:32:19.157Z,13949.3848
2023-04-20T00:33:20.599Z,13954.2305
2023-04-20T00:34:22.082Z,13953.0000
2023-04-20T00:35:23.478Z,13948.1543
2023-04-20T00:36:24.921Z,13954.0000
2023-04-20T00:37:26.347Z,13954.4619
2023-04-20T00:38:27.803Z,13954.3848
2023-04-20T00:39:29.296Z,13954.8457
2023-04-20T00:40:30.666Z,13954.9229
2023-04-20T00:41:31.980Z,13952.4619
2023-04-20T00:42:33.484Z,13954.0000
2023-04-20T00:43:34.874Z,13952.1543
2023-04-20T00:44:36.386Z,13957.1543
2023-04-20T00:45:37.799Z,13954.1543
2023-04-20T00:46:39.248Z,13954.8457
2023-04-20T00:47:40.691Z,13955.7695
2023-04-20T00:48:42.033Z,13959.4619
2023-04-20T00:49:43.523Z,13957.3848
2023-04-20T00:50:44.950Z,13955.0000
2023-04-20T00:51:46.353Z,13952.8457
2023-04-20T00:52:47.831Z,13955.1543
2023-04-20T00:53:49.227Z,13956.4619
2023-04-20T00:54:50.691Z,13954.3076
2023-04-20T00:55:52.150Z,13962.6152
2023-04-20T00:56:53.606Z,13958.8457
2023-04-20T00:57:54.962Z,13953.6152
2023-04-20T00:58:56.383Z,13951.6924
2023-04-20T00:59:57.909Z,13952.6152
2023-04-20T01:00:59.212Z,13953.5381
2023-04-20T01:02:00.748Z,13954.0000
2023-04-20T01:03:02.117Z,13954.1543
2023-04-20T01:04:03.589Z,13955.2305
2023-04-20T01:05:04.955Z,13957.2305
2023-04-20T01:06:06.394Z,13950.1543
2023-04-20T01:07:07.859Z,13952.3848
2023-04-20T01:08:09.275Z,13947.3076
2023-04-20T01:09:10.659Z,13952.6152
2023-04-20T01:10:12.164Z,13954.1543
2023-04-20T01:11:13.588Z,13954.3076
2023-04-20T01:12:14.962Z,13948.5381
2023-04-20T01:13:16.377Z,13954.3076
2023-04-20T01:14:17.793Z,13955.5381
2023-04-20T01:15:19.318Z,13949.6924
2023-04-20T01:16:20.724Z,13953.6152
2023-04-20T01:17:22.131Z,13953.5381
2023-04-20T01:18:23.586Z,13951.3848
2023-04-20T01:19:24.919Z,13950.1543
2023-04-20T01:20:26.392Z,13943.9229
2023-04-20T01:21:27.864Z,13951.7695
2023-04-20T01:22:29.212Z,13947.5381
2023-04-20T01:23:30.687Z,13949.6152
2023-04-20T01:24:32.161Z,13949.4619
2023-04-20T01:25:33.572Z,13950.7695
2023-04-20T01:26:35.042Z,13954.8457
2023-04-20T01:27:36.392Z,13950.0000
2023-04-20T01:28:37.854Z,13946.0000
2023-04-20T01:29:39.318Z,13945.7695
2023-04-20T01:30:40.735Z,13947.7695
2023-04-20T01:31:42.186Z,13958.0771
2023-04-20T01:32:43.610Z,13961.0771
2023-04-20T01:33:44.997Z,13959.6152
2023-04-20T01:34:46.435Z,13955.1543
2023-04-20T01:35:47.893Z,13953.4619
2023-04-20T01:36:49.240Z,13948.0000
2023-04-20T01:37:50.711Z,13954.2305
2023-04-20T01:38:52.214Z,13950.4619
2023-04-20T01:39:53.708Z,13946.8457
2023-04-20T01:40:55.055Z,13951.9229
2023-04-20T01:41:56.559Z,13958.3076
2023-04-20T01:42:58.005Z,13954.0000
2023-04-20T01:43:59.375Z,13947.4619
2023-04-20T01:45:00.829Z,13949.7695
2023-04-20T01:46:02.220Z,13950.4619
2023-04-20T01:47:03.717Z,13949.8457
2023-04-20T01:48:05.082Z,13954.6152
2023-04-20T01:49:06.542Z,13951.6152
2023-04-20T01:50:07.931Z,13954.6924
2023-04-20T01:51:09.401Z,13957.9229
2023-04-20T01:52:10.838Z,13953.8457
2023-04-20T01:53:12.273Z,13953.7695
2023-04-20T01:54:13.700Z,13952.5381
2023-04-20T01:55:15.220Z,13956.7695
2023-04-20T01:56:16.686Z,13948.6924
2023-04-20T01:57:18.161Z,13948.8457
2023-04-20T01:58:19.515Z,13951.2305
2023-04-20T01:59:21.008Z,13952.7695
2023-04-20T02:00:22.387Z,13949.4619
2023-04-20T02:01:23.820Z,13950.5381
2023-04-20T02:02:25.461Z,13963.4619
2023-04-20T02:03:26.716Z,13957.7695
2023-04-20T02:04:28.135Z,13953.0771
2023-04-20T02:05:29.579Z,13950.6152
2023-04-20T02:06:30.987Z,13954.6152
2023-04-20T02:07:32.515Z,13951.2305
2023-04-20T02:08:33.741Z,13942.4619
2023-04-20T02:09:35.260Z,13951.3076
2023-04-20T02:10:36.711Z,13948.2305
2023-04-20T02:11:38.125Z,13949.3076
2023-04-20T02:12:39.629Z,13949.5381
2023-04-20T02:13:41.049Z,13950.5381
2023-04-20T02:14:42.473Z,13950.2305
2023-04-20T02:15:43.932Z,13951.1543
2023-04-20T02:16:45.327Z,13957.6924
2023-04-20T02:17:46.783Z,13958.2305
2023-04-20T02:18:48.064Z,13957.6152
2023-04-20T02:19:49.555Z,13950.3848
2023-04-20T02:20:50.900Z,13953.8457
2023-04-20T02:21:52.415Z,13957.1543
2023-04-20T02:22:53.951Z,13954.0771
2023-04-20T02:23:55.456Z,13950.2305
2023-04-20T02:24:56.750Z,13949.1543
2023-04-20T02:25:58.173Z,13949.4619
2023-04-20T02:26:59.593Z,13951.8457
2023-04-20T02:28:01.092Z,13953.3848
2023-04-20T02:29:02.475Z,13949.7695
2023-04-20T02:30:03.923Z,13948.2305
2023-04-20T02:31:05.338Z,13952.6924
2023-04-20T02:32:06.656Z,13951.8457
2023-04-20T02:33:08.254Z,13954.6924
2023-04-20T02:34:09.735Z,13956.8457
2023-04-20T02:35:11.020Z,13953.7695
2023-04-20T02:36:12.598Z,13957.4619
2023-04-20T02:37:13.908Z,13959.3076
2023-04-20T02:38:15.391Z,13957.4619
2023-04-20T02:39:17.031Z,13952.0000
2023-04-20T02:40:18.232Z,13955.3076
2023-04-20T02:41:19.647Z,13956.2305
2023-04-20T02:42:21.004Z,13952.9229
2023-04-20T02:43:22.435Z,13953.3076
2023-04-20T02:44:23.938Z,13955.6152
2023-04-20T02:45:25.349Z,13957.0000
2023-04-20T02:46:26.787Z,13962.3076
2023-04-20T02:47:28.234Z,13956.5381
2023-04-20T02:48:29.724Z,13952.9229
2023-04-20T02:49:31.054Z,13954.4619
2023-04-20T02:50:32.482Z,13952.8457
2023-04-20T02:51:33.921Z,13956.6924
2023-04-20T02:52:35.253Z,13955.1543
2023-04-20T02:53:36.799Z,13963.0771
2023-04-20T02:54:38.200Z,13966.0000
2023-04-20T02:55:39.677Z,13950.2305
2023-04-20T02:56:41.061Z,13939.9229
2023-04-20T02:57:42.506Z,13930.0771
2023-04-20T02:58:43.968Z,13922.8457
2023-04-20T02:59:45.342Z,13923.5381
2023-04-20T03:00:46.796Z,13928.3076
2023-04-20T03:01:48.203Z,13927.8457
2023-04-20T03:02:49.830Z,13921.6152
2023-04-20T03:03:51.331Z,13925.7695
2023-04-20T03:04:52.728Z,13920.8457
2023-04-20T03:05:55.181Z,13927.6924
2023-04-20T03:06:55.365Z,13927.8457
2023-04-20T03:07:56.904Z,13920.3076
2023-04-20T03:08:58.248Z,13918.9229
2023-04-20T03:09:59.661Z,13924.1543
2023-04-20T03:11:01.124Z,13924.7695
2023-04-20T03:12:02.541Z,13928.5381
2023-04-20T03:13:03.941Z,13925.6152
2023-04-20T03:14:05.429Z,13917.3076
2023-04-20T03:15:06.802Z,13917.5381
2023-04-20T03:16:08.365Z,13917.1543
2023-04-20T03:17:09.683Z,13915.4619
2023-04-20T03:18:11.010Z,13924.3076
2023-04-20T03:19:12.570Z,13921.6152
2023-04-20T03:20:13.878Z,13915.4619
2023-04-20T03:21:15.459Z,13907.0000
2023-04-20T03:22:16.798Z,13913.3848
2023-04-20T03:23:18.186Z,13918.3076
2023-04-20T03:24:19.672Z,13919.5381
2023-04-20T03:25:20.990Z,13917.3848
2023-04-20T03:26:22.531Z,13916.0771
2023-04-20T03:27:23.985Z,13919.4619
2023-04-20T03:28:25.326Z,13916.4619
2023-04-20T03:29:26.896Z,13915.8457
2023-04-20T03:30:28.249Z,13916.3848
2023-04-20T03:31:29.753Z,13914.0771
2023-04-20T03:32:32.722Z,13920.8457
2023-04-20T03:33:32.564Z,13917.3076
2023-04-20T03:34:34.053Z,13909.5381
2023-04-20T03:35:35.411Z,13907.0000
2023-04-20T03:36:36.817Z,13915.6924
2023-04-20T03:37:38.292Z,13920.9229
2023-04-20T03:38:39.654Z,13912.1543
2023-04-20T03:39:41.157Z,13915.0000
2023-04-20T03:40:42.569Z,13919.6152
2023-04-20T03:41:44.022Z,13914.7695
2023-04-20T03:42:45.359Z,13909.9229
2023-04-20T03:43:46.761Z,13916.6152
2023-04-20T03:44:48.320Z,13909.3848
2023-04-20T03:45:49.739Z,13913.1543
2023-04-20T03:46:51.149Z,13904.6924
2023-04-20T03:47:52.612Z,13905.8457
2023-04-20T03:48:54.034Z,13909.6152
2023-04-20T03:49:55.488Z,13910.0771
2023-04-20T03:50:56.824Z,13909.9229
2023-04-20T03:51:58.326Z,13909.2305
2023-04-20T03:52:59.681Z,13907.9229
2023-04-20T03:54:01.192Z,13908.2305
2023-04-20T03:55:02.603Z,13909.8457
2023-04-20T03:56:03.962Z,13909.3076
2023-04-20T03:57:05.364Z,13913.0000
2023-04-20T03:58:06.897Z,13913.0000
2023-04-20T03:59:08.213Z,13911.0771
2023-04-20T04:00:09.698Z,13908.0771
2023-04-20T04:01:11.118Z,13907.5381
2023-04-20T04:02:12.525Z,13907.6924
2023-04-20T04:03:14.153Z,13906.7695
2023-04-20T04:04:15.541Z,13914.6152
2023-04-20T04:05:16.915Z,13902.0771
2023-04-20T04:06:18.240Z,13907.2305
2023-04-20T04:07:19.632Z,13909.8457
2023-04-20T04:08:21.002Z,13902.3076
2023-04-20T04:09:22.629Z,13906.2305
2023-04-20T04:10:24.013Z,13907.0771
2023-04-20T04:11:25.446Z,13904.1543
2023-04-20T04:12:26.892Z,13911.3076
2023-04-20T04:13:28.203Z,13903.8457
2023-04-20T04:14:29.544Z,13902.3848
2023-04-20T04:15:31.050Z,13908.0000
2023-04-20T04:16:32.620Z,13906.6924
2023-04-20T04:17:33.896Z,13903.0000
2023-04-20T04:18:35.393Z,13904.1543
2023-04-20T04:19:36.821Z,13904.0771
2023-04-20T04:20:38.298Z,13901.7695
2023-04-20T04:21:39.720Z,13906.6924
2023-04-20T04:22:41.013Z,13901.3076
2023-04-20T04:23:42.491Z,13894.2305
2023-04-20T04:24:43.962Z,13890.1543
2023-04-20T04:25:45.459Z,13906.6924
2023-04-20T04:26:46.866Z,13911.2305
2023-04-20T04:27:48.330Z,13915.6924
2023-04-20T04:28:49.563Z,13918.2305
2023-04-20T04:29:51.178Z,13920.3076
2023-04-20T04:30:52.645Z,13922.0771
2023-04-20T04:31:54.198Z,13919.1543
2023-04-20T04:32:55.532Z,13920.5381
2023-04-20T04:33:56.781Z,13921.6152
2023-04-20T04:34:58.152Z,13920.6152
2023-04-20T04:35:59.715Z,13916.1543
2023-04-20T04:37:01.136Z,13920.0000
2023-04-20T04:38:02.541Z,13922.3076
2023-04-20T04:39:03.938Z,13919.9229
2023-04-20T04:40:05.432Z,13921.8457
2023-04-20T04:41:06.875Z,13914.8457
2023-04-20T04:42:08.145Z,13916.7695
2023-04-20T04:43:09.631Z,13912.3076
2023-04-20T04:44:11.156Z,13914.3076
2023-04-20T04:45:12.513Z,13917.3076
2023-04-20T04:46:14.044Z,13915.5381
2023-04-20T04:47:15.380Z,13915.3848
2023-04-20T04:48:16.771Z,13913.0000
2023-04-20T04:49:18.366Z,13908.4619
2023-04-20T04:50:19.606Z,13915.1543
2023-04-20T04:51:21.150Z,13919.0000
2023-04-20T04:52:22.421Z,13917.6152
2023-04-20T04:53:23.957Z,13909.7695
2023-04-20T04:54:25.340Z,13906.4619
2023-04-20T04:55:26.825Z,13908.4619
2023-04-20T04:56:28.243Z,13907.6924
2023-04-20T04:57:29.643Z,13907.9229
2023-04-20T04:58:31.035Z,13905.4619
2023-04-20T04:59:32.486Z,13904.6924
2023-04-20T05:00:33.877Z,13897.8457
2023-04-20T05:01:35.414Z,13890.9229
2023-04-20T05:02:37.245Z,13892.4619
2023-04-20T05:03:38.341Z,13888.9229
2023-04-20T05:04:39.667Z,13887.2305
2023-04-20T05:05:41.056Z,13865.6924
2023-04-20T05:06:42.554Z,13863.4619
2023-04-20T05:07:43.957Z,13873.7695
2023-04-20T05:08:45.347Z,13868.3848
2023-04-20T05:09:46.748Z,13869.1543
2023-04-20T05:10:48.134Z,13859.3076
2023-04-20T05:11:49.605Z,13864.5381
2023-04-20T05:12:51.089Z,13857.9229
2023-04-20T05:13:52.507Z,13860.3848
2023-04-20T05:14:53.889Z,13844.4619
2023-04-20T05:15:55.395Z,13854.6152
2023-04-20T05:16:56.738Z,13854.0771
2023-04-20T05:17:58.186Z,13857.5381
2023-04-20T05:18:59.564Z,13850.3848
2023-04-20T05:20:01.030Z,13851.7695
2023-04-20T05:21:02.470Z,13847.3848
2023-04-20T05:22:04.013Z,13837.0771
2023-04-20T05:23:05.487Z,13839.6924
2023-04-20T05:24:06.754Z,13849.0771
2023-04-20T05:25:08.196Z,13840.7695
2023-04-20T05:26:09.638Z,13838.6924
2023-04-20T05:27:11.026Z,13835.6152
2023-04-20T05:28:12.488Z,13831.6924
2023-04-20T05:29:13.805Z,13828.6152
2023-04-20T05:30:20.315Z,13831.6152
2023-04-20T05:31:16.719Z,13827.0000
2023-04-20T05:32:18.272Z,13821.8457
2023-04-20T05:33:19.611Z,13827.6152
2023-04-20T05:34:20.976Z,13817.6152
2023-04-20T05:35:22.433Z,13822.3848
2023-04-20T05:36:23.873Z,13827.3848
2023-04-20T05:37:25.166Z,13813.2305
2023-04-20T05:38:26.590Z,13817.4619
2023-04-20T05:39:28.141Z,13811.4619
2023-04-20T05:40:29.571Z,13816.9229
2023-04-20T05:41:30.998Z,13818.0771
2023-04-20T05:42:32.451Z,13818.7695
2023-04-20T05:43:33.809Z,13825.7695
2023-04-20T05:44:35.251Z,13821.8457
2023-04-20T05:45:36.736Z,13819.7695
2023-04-20T05:46:38.113Z,13820.1543
2023-04-20T05:47:39.669Z,13814.1543
2023-04-20T05:48:40.933Z,13808.4619
2023-04-20T05:49:42.444Z,13808.1543
2023-04-20T05:50:43.893Z,13818.3076
2023-04-20T05:51:45.318Z,13814.3848
2023-04-20T05:52:46.808Z,13804.0771
2023-04-20T05:53:48.207Z,13807.1543
2023-04-20T05:54:49.541Z,13815.1543
2023-04-20T05:55:50.979Z,13814.3848
2023-04-20T05:56:52.506Z,13817.3848
2023-04-20T05:57:53.911Z,13804.6152
2023-04-20T05:58:55.399Z,13808.0771
2023-04-20T05:59:56.815Z,13813.7695
2023-04-20T06:00:58.198Z,13812.0000
2023-04-20T06:01:59.728Z,13813.5381
2023-04-20T06:03:01.309Z,13798.3076
2023-04-20T06:04:02.879Z,13799.6152
2023-04-20T06:05:03.928Z,13798.4619
2023-04-20T06:06:05.415Z,13817.4619
2023-04-20T06:07:06.805Z,13815.5381
2023-04-20T06:08:08.259Z,13811.4619
2023-04-20T06:09:09.696Z,13800.3076
2023-04-20T06:10:11.113Z,13788.2305
2023-04-20T06:11:12.469Z,13792.8457
2023-04-20T06:12:13.945Z,13797.7695
2023-04-20T06:13:15.412Z,13807.6152
2023-04-20T06:14:17.273Z,13813.6924
2023-04-20T06:15:18.218Z,13793.3076
2023-04-20T06:16:19.688Z,13788.8457
2023-04-20T06:17:21.091Z,13793.0771
2023-04-20T06:18:22.594Z,13798.0771
2023-04-20T06:19:23.994Z,13806.9229
2023-04-20T06:20:25.409Z,13814.3848
2023-04-20T06:21:26.837Z,13791.1543
2023-04-20T06:22:28.288Z,13790.0000
2023-04-20T06:23:29.630Z,13781.5381
2023-04-20T06:24:31.039Z,13796.3848
2023-04-20T06:25:32.492Z,13803.4619
2023-04-20T06:26:33.850Z,13804.0000
2023-04-20T06:27:35.376Z,13792.8457
2023-04-20T06:28:36.844Z,13787.3076
2023-04-20T06:29:38.319Z,13787.6924
2023-04-20T06:30:39.568Z,13795.0000
2023-04-20T06:31:41.137Z,13804.8457
2023-04-20T06:32:42.552Z,13817.1543
2023-04-20T06:33:43.925Z,13790.0000
2023-04-20T06:34:45.413Z,13785.9229
2023-04-20T06:35:46.777Z,13783.6152
2023-04-20T06:36:48.198Z,13799.5381
2023-04-20T06:37:49.665Z,13803.0771
2023-04-20T06:38:51.038Z,13812.7695
2023-04-20T06:39:52.559Z,13794.6152
2023-04-20T06:40:53.956Z,13782.0000
2023-04-20T06:41:55.345Z,13782.1543
2023-04-20T06:42:56.702Z,13790.5381
2023-04-20T06:43:58.241Z,13799.1543
2023-04-20T06:44:59.636Z,13802.3076
2023-04-20T06:46:01.085Z,13790.9229
2023-04-20T06:47:02.635Z,13779.1543
2023-04-20T06:48:03.954Z,13789.3848
2023-04-20T06:49:05.356Z,13792.0000
2023-04-20T06:50:06.854Z,13798.5381
2023-04-20T06:51:08.247Z,13806.0000
2023-04-20T06:52:09.618Z,13783.7695
2023-04-20T06:53:11.073Z,13773.4619
2023-04-20T06:54:12.524Z,13794.4619
2023-04-20T06:55:13.891Z,13798.6924
2023-04-20T06:56:15.263Z,13792.6152
2023-04-20T06:57:16.768Z,13794.4619
2023-04-20T06:58:18.168Z,13783.0771
2023-04-20T06:59:19.894Z,13776.2305
2023-04-20T07:00:21.094Z,13781.3848
2023-04-20T07:01:22.635Z,13790.2305
2023-04-20T07:02:24.031Z,13807.3848
2023-04-20T07:03:25.578Z,13811.9229
2023-04-20T07:04:26.817Z,13784.0000
2023-04-20T07:05:28.231Z,13770.1543
2023-04-20T07:06:29.570Z,13790.1543
2023-04-20T07:07:31.057Z,13797.3076
2023-04-20T07:08:32.449Z,13800.9229
2023-04-20T07:09:33.987Z,13800.3076
2023-04-20T07:10:35.362Z,13779.0771
2023-04-20T07:11:36.759Z,13779.5381
2023-04-20T07:12:38.540Z,13789.1543
2023-04-20T07:13:39.672Z,13790.4619
2023-04-20T07:14:41.111Z,13808.3848
2023-04-20T07:15:42.526Z,13788.3848
2023-04-20T07:16:43.899Z,13777.2305
2023-04-20T07:17:45.438Z,13772.0771
2023-04-20T07:18:46.850Z,13791.3848
2023-04-20T07:19:48.234Z,13788.0771
2023-04-20T07:20:49.658Z,13793.1543
2023-04-20T07:21:51.061Z,13786.3076
2023-04-20T07:22:52.497Z,13773.6152
2023-04-20T07:23:53.903Z,13774.3076
2023-04-20T07:24:55.404Z,13783.4619
2023-04-20T07:25:56.845Z,13784.3076
2023-04-20T07:26:58.171Z,13808.6152
2023-04-20T07:27:59.709Z,13783.3848
2023-04-20T07:29:01.081Z,13770.0000
2023-04-20T07:30:02.528Z,13772.3848
2023-04-20T07:31:03.887Z,13786.1543
2023-04-20T07:32:05.385Z,13792.3076
2023-04-20T07:33:06.805Z,13800.5381
2023-04-20T07:34:08.246Z,13778.7695
2023-04-20T07:35:09.703Z,13764.0000
2023-04-20T07:36:11.040Z,13778.7695
2023-04-20T07:37:12.524Z,13788.2305
2023-04-20T07:38:13.982Z,13802.2305
2023-04-20T07:39:15.697Z,13793.6924
2023-04-20T07:40:16.848Z,13772.6924
2023-04-20T07:41:18.323Z,13765.6924
2023-04-20T07:42:19.644Z,13788.4619
2023-04-20T07:43:21.125Z,13786.6152
2023-04-20T07:44:22.503Z,13810.5381
2023-04-20T07:45:24.014Z,13783.2305
2023-04-20T07:46:25.425Z,13766.1543
2023-04-20T07:47:26.855Z,13771.9229
2023-04-20T07:48:28.267Z,13779.4619
2023-04-20T07:49:29.720Z,13788.5381
2023-04-20T07:50:31.219Z,13809.0000
2023-04-20T07:51:32.656Z,13771.4619
2023-04-20T07:52:33.896Z,13759.8457
2023-04-20T07:53:35.455Z,13771.4619
2023-04-20T07:54:36.855Z,13778.3076
2023-04-20T07:55:38.278Z,13789.1543
2023-04-20T07:56:39.749Z,13794.1543
2023-04-20T07:57:41.086Z,13773.3848
2023-04-20T07:58:42.510Z,13763.6924
2023-04-20T07:59:43.995Z,13773.6152
2023-04-20T08:00:45.398Z,13778.6924
2023-04-20T08:01:46.840Z,13788.9229
2023-04-20T08:02:48.307Z,13795.3076
2023-04-20T08:03:49.850Z,13770.6924
2023-04-20T08:04:51.396Z,13760.5381
2023-04-20T08:05:52.563Z,13769.4619
2023-04-20T08:06:53.944Z,13776.2305
2023-04-20T08:07:55.315Z,13788.5381
2023-04-20T08:08:56.794Z,13775.2305
2023-04-20T08:09:58.197Z,13764.6152
2023-04-20T08:10:59.685Z,13769.3848
2023-04-20T08:12:01.135Z,13776.4619
2023-04-20T08:13:02.545Z,13777.4619
2023-04-20T08:14:04.037Z,13783.8457
2023-04-20T08:15:05.360Z,13766.3848
2023-04-20T08:16:07.562Z,13763.3076
2023-04-20T08:17:08.192Z,13771.7695
2023-04-20T08:18:09.624Z,13776.0000
2023-04-20T08:19:11.020Z,13785.1543
2023-04-20T08:20:12.476Z,13793.8457
2023-04-20T08:21:14.014Z,13760.6924
2023-04-20T08:22:15.406Z,13761.4619
2023-04-20T08:23:16.730Z,13772.5381
2023-04-20T08:24:18.480Z,13770.6924
2023-04-20T08:25:19.546Z,13787.8457
2023-04-20T08:26:21.157Z,13774.0771
2023-04-20T08:27:22.484Z,13756.3076
2023-04-20T08:28:33.426Z,13759.9229
2023-04-20T08:29:25.289Z,13765.2500
2023-04-20T08:30:26.740Z,13772.7695
2023-04-20T08:31:28.292Z,13770.0771
2023-04-20T08:32:29.686Z,13760.3076
2023-04-20T08:33:31.019Z,13753.0771
2023-04-20T08:34:32.450Z,13766.2305
2023-04-20T08:35:33.866Z,13770.0000
2023-04-20T08:36:35.267Z,13781.0771
2023-04-20T08:37:36.768Z,13771.7695
2023-04-20T08:38:38.124Z,13748.4619
2023-04-20T08:39:39.636Z,13756.2305
2023-04-20T08:40:40.936Z,13770.0771
2023-04-20T08:41:42.457Z,13767.6924
2023-04-20T08:42:43.856Z,13764.0000
2023-04-20T08:43:45.298Z,13756.9229
2023-04-20T08:44:46.753Z,13745.7695
2023-04-20T08:45:48.122Z,13763.5381
2023-04-20T08:46:49.603Z,13766.6924
2023-04-20T08:47:51.050Z,13768.1543
2023-04-20T08:48:52.248Z,13760.5381
2023-04-20T08:49:53.786Z,13748.3076
2023-04-20T08:50:55.269Z,13754.6152
2023-04-20T08:51:56.685Z,13762.2305
2023-04-20T08:52:58.089Z,13770.8457
2023-04-20T08:53:59.537Z,13782.4619
2023-04-20T08:55:00.848Z,13763.7695
2023-04-20T08:56:02.399Z,13748.9229
2023-04-20T08:57:03.868Z,13764.5381
2023-04-20T08:58:05.279Z,13765.8457
2023-04-20T08:59:06.602Z,13774.3076
2023-04-20T09:00:08.070Z,13767.1543
2023-04-20T09:01:09.617Z,13752.3076
2023-04-20T09:02:11.136Z,13743.4619
2023-04-20T09:03:12.569Z,13762.9229
2023-04-20T09:04:14.069Z,13770.8457
2023-04-20T09:05:15.215Z,13773.7695
2023-04-20T09:06:16.621Z,13782.6152
2023-04-20T09:07:18.041Z,13753.6924
2023-04-20T09:08:19.524Z,13751.9229
2023-04-20T09:09:20.900Z,13777.0771
2023-04-20T09:10:22.397Z,13787.3848
2023-04-20T09:11:23.731Z,13786.3076
2023-04-20T09:12:25.313Z,13771.8457
2023-04-20T09:13:26.696Z,13759.7695
2023-04-20T09:14:28.052Z,13768.5381
2023-04-20T09:15:29.888Z,13784.8457
2023-04-20T09:16:30.934Z,13799.0771
2023-04-20T09:17:32.411Z,13782.5381
2023-04-20T09:18:33.811Z,13772.8457
2023-04-20T09:19:35.182Z,13763.7695
2023-04-20T09:20:36.610Z,13777.9229
2023-04-20T09:21:38.015Z,13792.0000
2023-04-20T09:22:39.516Z,13807.5381
2023-04-20T09:23:40.896Z,13789.0771
2023-04-20T09:24:42.237Z,13776.0771
2023-04-20T09:25:43.756Z,13760.3848
2023-04-20T09:26:45.257Z,13789.6152
2023-04-20T09:27:46.599Z,13804.3076
